createdAt,value
2022-07-30T00:00:40.325Z,19.02
2022-07-30T00:01:40.393Z,18.96
2022-07-30T00:02:40.310Z,18.84
2022-07-30T00:03:40.310Z,19.01
2022-07-30T00:04:40.320Z,19.15
2022-07-30T00:05:40.269Z,19.13
2022-07-30T00:06:40.259Z,19.12
2022-07-30T00:07:40.250Z,19.16
2022-07-30T00:08:40.246Z,19.16
2022-07-30T00:09:40.239Z,19.15
2022-07-30T00:10:40.237Z,19.10
2022-07-30T00:11:40.205Z,18.96
2022-07-30T00:12:40.195Z,18.79
2022-07-30T00:13:40.185Z,18.65
2022-07-30T00:14:40.189Z,18.79
2022-07-30T00:15:40.175Z,18.94
2022-07-30T00:16:40.232Z,19.10
2022-07-30T00:17:40.139Z,19.10
2022-07-30T00:18:40.129Z,19.15
2022-07-30T00:19:40.138Z,19.01
2022-07-30T00:20:40.108Z,18.99
2022-07-30T00:21:40.097Z,18.79
2022-07-30T00:22:40.093Z,18.75
2022-07-30T00:23:40.087Z,18.53
2022-07-30T00:24:41.080Z,18.41
2022-07-30T00:25:40.051Z,18.38
2022-07-30T00:26:40.050Z,18.23
2022-07-30T00:27:40.038Z,18.04
2022-07-30T00:28:40.037Z,17.80
2022-07-30T00:29:44.952Z,17.87
2022-07-30T00:30:41.046Z,17.89
2022-07-30T00:31:39.992Z,17.96
2022-07-30T00:32:39.981Z,17.99
2022-07-30T00:33:39.982Z,17.92
2022-07-30T00:34:40.002Z,17.84
2022-07-30T00:35:39.969Z,17.89
2022-07-30T00:36:39.937Z,17.79
2022-07-30T00:37:39.924Z,17.66
2022-07-30T00:38:39.923Z,17.68
2022-07-30T00:39:39.932Z,17.46
2022-07-30T00:40:39.894Z,17.46
2022-07-30T00:41:39.909Z,17.38
2022-07-30T00:42:39.874Z,17.35
2022-07-30T00:43:39.864Z,17.24
2022-07-30T00:44:41.139Z,17.14
2022-07-30T00:45:39.923Z,16.95
2022-07-30T00:46:39.829Z,16.90
2022-07-30T00:47:39.830Z,16.82
2022-07-30T00:48:39.868Z,16.77
2022-07-30T00:49:44.135Z,16.77
2022-07-30T00:50:39.791Z,17.00
2022-07-30T00:51:39.788Z,17.35
2022-07-30T00:52:39.769Z,17.27
2022-07-30T00:53:39.754Z,17.25
2022-07-30T00:54:39.817Z,17.14
2022-07-30T00:55:39.745Z,17.00
2022-07-30T00:56:39.735Z,16.95
2022-07-30T00:57:39.713Z,16.90
2022-07-30T00:58:39.699Z,16.90
2022-07-30T00:59:39.816Z,16.87
2022-07-30T01:00:39.690Z,16.80
2022-07-30T01:01:39.671Z,16.73
2022-07-30T01:02:39.771Z,16.59
2022-07-30T01:03:39.647Z,16.59
2022-07-30T01:04:39.662Z,16.52
2022-07-30T01:05:39.621Z,16.50
2022-07-30T01:06:39.613Z,16.40
2022-07-30T01:07:39.608Z,16.30
2022-07-30T01:08:39.612Z,16.30
2022-07-30T01:09:39.606Z,16.30
2022-07-30T01:10:39.577Z,16.29
2022-07-30T01:11:39.561Z,16.18
2022-07-30T01:12:39.567Z,16.03
2022-07-30T01:13:39.542Z,16.07
2022-07-30T01:14:39.575Z,16.10
2022-07-30T01:15:39.514Z,15.95
2022-07-30T01:16:39.546Z,15.99
2022-07-30T01:17:39.495Z,15.89
2022-07-30T01:18:39.486Z,15.89
2022-07-30T01:19:39.492Z,15.77
2022-07-30T01:20:39.481Z,15.89
2022-07-30T01:21:39.451Z,16.03
2022-07-30T01:22:39.444Z,16.17
2022-07-30T01:23:39.851Z,16.18
2022-07-30T01:24:39.468Z,16.17
2022-07-30T01:25:39.407Z,16.36
2022-07-30T01:26:39.417Z,16.47
2022-07-30T01:27:39.413Z,16.33
2022-07-30T01:28:39.377Z,16.25
2022-07-30T01:29:39.399Z,16.22
2022-07-30T01:30:39.396Z,16.14
2022-07-30T01:31:39.373Z,16.13
2022-07-30T01:32:39.353Z,16.06
2022-07-30T01:33:39.322Z,15.96
2022-07-30T01:34:39.324Z,15.86
2022-07-30T01:35:39.316Z,15.88
2022-07-30T01:36:39.293Z,15.77
2022-07-30T01:37:39.281Z,15.74
2022-07-30T01:38:39.290Z,15.68
2022-07-30T01:39:39.277Z,15.66
2022-07-30T01:40:39.252Z,15.48
2022-07-30T01:41:39.239Z,15.41
2022-07-30T01:42:39.227Z,15.38
2022-07-30T01:43:39.214Z,15.22
2022-07-30T01:44:39.248Z,15.23
2022-07-30T01:45:42.392Z,15.16
2022-07-30T01:46:40.195Z,15.13
2022-07-30T01:47:39.171Z,15.04
2022-07-30T01:48:39.228Z,14.94
2022-07-30T01:49:39.173Z,14.85
2022-07-30T01:50:39.204Z,14.83
2022-07-30T01:51:39.128Z,14.75
2022-07-30T01:52:39.117Z,14.71
2022-07-30T01:53:39.108Z,14.74
2022-07-30T01:54:39.113Z,14.64
2022-07-30T01:55:39.104Z,14.63
2022-07-30T01:56:39.088Z,14.57
2022-07-30T01:57:39.073Z,14.61
2022-07-30T01:58:39.071Z,14.57
2022-07-30T01:59:39.048Z,14.52
2022-07-30T02:00:39.092Z,14.52
2022-07-30T02:01:39.019Z,14.44
2022-07-30T02:02:39.036Z,14.36
2022-07-30T02:03:39.067Z,14.35
2022-07-30T02:04:39.004Z,14.38
2022-07-30T02:05:38.976Z,14.42
2022-07-30T02:06:38.968Z,14.34
2022-07-30T02:07:38.957Z,14.34
2022-07-30T02:08:38.971Z,14.30
2022-07-30T02:09:38.971Z,14.29
2022-07-30T02:10:38.944Z,14.24
2022-07-30T02:11:38.914Z,14.29
2022-07-30T02:12:38.925Z,14.31
2022-07-30T02:13:38.889Z,14.29
2022-07-30T02:14:38.899Z,14.31
2022-07-30T02:15:38.917Z,14.21
2022-07-30T02:16:38.901Z,14.21
2022-07-30T02:17:39.916Z,14.21
2022-07-30T02:18:39.646Z,14.17
2022-07-30T02:19:41.696Z,14.12
2022-07-30T02:20:39.258Z,14.06
2022-07-30T02:21:38.820Z,14.09
2022-07-30T02:22:38.794Z,13.98
2022-07-30T02:23:38.782Z,13.99
2022-07-30T02:24:38.801Z,13.90
2022-07-30T02:25:38.784Z,13.90
2022-07-30T02:26:38.754Z,14.05
2022-07-30T02:27:38.757Z,13.91
2022-07-30T02:28:38.729Z,14.01
2022-07-30T02:29:38.736Z,13.84
2022-07-30T02:30:38.711Z,13.90
2022-07-30T02:31:38.747Z,13.81
2022-07-30T02:32:38.685Z,13.76
2022-07-30T02:33:41.198Z,13.76
2022-07-30T02:34:39.704Z,13.80
2022-07-30T02:35:38.660Z,13.83
2022-07-30T02:36:38.641Z,13.81
2022-07-30T02:37:43.306Z,13.83
2022-07-30T02:38:39.617Z,13.83
2022-07-30T02:39:38.621Z,13.76
2022-07-30T02:40:38.632Z,13.79
2022-07-30T02:41:38.612Z,13.73
2022-07-30T02:42:38.583Z,13.68
2022-07-30T02:43:38.567Z,13.68
2022-07-30T02:44:38.578Z,13.69
2022-07-30T02:45:38.545Z,13.65
2022-07-30T02:46:38.637Z,13.71
2022-07-30T02:47:38.531Z,13.69
2022-07-30T02:48:38.587Z,13.59
2022-07-30T02:49:38.519Z,13.57
2022-07-30T02:50:38.493Z,13.54
2022-07-30T02:51:38.485Z,13.63
2022-07-30T02:52:38.489Z,13.53
2022-07-30T02:53:38.458Z,13.54
2022-07-30T02:54:38.461Z,13.44
2022-07-30T02:55:38.440Z,13.51
2022-07-30T02:56:38.461Z,13.55
2022-07-30T02:57:43.259Z,13.61
2022-07-30T02:58:39.416Z,13.63
2022-07-30T02:59:38.431Z,13.65
2022-07-30T03:00:38.471Z,13.66
2022-07-30T03:01:38.437Z,13.62
2022-07-30T03:02:38.359Z,13.55
2022-07-30T03:03:38.348Z,13.50
2022-07-30T03:04:38.347Z,13.43
2022-07-30T03:05:38.345Z,13.46
2022-07-30T03:06:38.318Z,13.43
2022-07-30T03:07:38.329Z,13.39
2022-07-30T03:08:38.303Z,13.31
2022-07-30T03:09:52.336Z,13.27
2022-07-30T03:10:39.275Z,13.25
2022-07-30T03:11:38.300Z,13.24
2022-07-30T03:12:38.250Z,13.17
2022-07-30T03:13:38.238Z,13.25
2022-07-30T03:14:38.234Z,13.27
2022-07-30T03:15:39.509Z,13.32
2022-07-30T03:16:38.347Z,13.25
2022-07-30T03:17:38.215Z,13.41
2022-07-30T03:18:38.190Z,13.55
2022-07-30T03:19:38.203Z,13.48
2022-07-30T03:20:38.167Z,13.55
2022-07-30T03:21:38.170Z,13.55
2022-07-30T03:22:38.144Z,13.53
2022-07-30T03:23:38.150Z,13.46
2022-07-30T03:24:38.138Z,13.59
2022-07-30T03:25:38.130Z,13.61
2022-07-30T03:26:38.118Z,13.75
2022-07-30T03:27:38.088Z,13.98
2022-07-30T03:28:38.080Z,14.02
2022-07-30T03:29:38.114Z,14.34
2022-07-30T03:30:38.058Z,14.52
2022-07-30T03:31:38.136Z,14.67
2022-07-30T03:32:38.038Z,14.86
2022-07-30T03:33:39.218Z,15.07
2022-07-30T03:34:38.036Z,15.13
2022-07-30T03:35:38.013Z,15.19
2022-07-30T03:36:37.993Z,15.16
2022-07-30T03:37:37.982Z,15.27
2022-07-30T03:38:37.971Z,15.44
2022-07-30T03:39:37.993Z,15.51
2022-07-30T03:40:37.994Z,15.74
2022-07-30T03:41:38.530Z,15.88
2022-07-30T03:42:37.964Z,16.08
2022-07-30T03:43:37.921Z,16.04
2022-07-30T03:44:37.923Z,16.08
2022-07-30T03:45:37.894Z,16.11
2022-07-30T03:46:37.941Z,15.99
2022-07-30T03:47:37.890Z,15.99
2022-07-30T03:48:37.861Z,16.03
2022-07-30T03:49:37.872Z,16.03
2022-07-30T03:50:37.857Z,16.01
2022-07-30T03:51:37.841Z,16.04
2022-07-30T03:52:37.856Z,16.08
2022-07-30T03:53:37.814Z,15.98
2022-07-30T03:54:37.797Z,15.91
2022-07-30T03:55:37.803Z,15.93
2022-07-30T03:56:37.777Z,15.85
2022-07-30T03:57:37.769Z,15.80
2022-07-30T03:58:37.786Z,15.66
2022-07-30T03:59:37.763Z,15.58
2022-07-30T04:00:37.735Z,15.37
2022-07-30T04:01:37.791Z,15.35
2022-07-30T04:02:37.720Z,15.20
2022-07-30T04:03:37.749Z,15.22
2022-07-30T04:04:37.726Z,15.16
2022-07-30T04:05:41.658Z,15.13
2022-07-30T04:06:37.676Z,15.00
2022-07-30T04:07:44.901Z,14.95
2022-07-30T04:08:38.646Z,14.93
2022-07-30T04:09:37.651Z,14.87
2022-07-30T04:10:37.645Z,14.74
2022-07-30T04:11:40.920Z,14.66
2022-07-30T04:12:37.605Z,14.60
2022-07-30T04:13:37.612Z,14.52
2022-07-30T04:14:37.612Z,14.38
2022-07-30T04:16:38.237Z,14.26
2022-07-30T04:16:42.237Z,14.30
2022-07-30T04:17:37.625Z,14.24
2022-07-30T04:18:37.541Z,14.21
2022-07-30T04:19:37.550Z,14.16
2022-07-30T04:20:37.550Z,14.05
2022-07-30T04:21:37.510Z,14.05
2022-07-30T04:22:37.529Z,13.94
2022-07-30T04:24:01.749Z,13.90
2022-07-30T04:24:38.490Z,13.87
2022-07-30T04:25:37.465Z,13.93
2022-07-30T04:26:37.455Z,13.91
2022-07-30T04:27:37.444Z,13.90
2022-07-30T04:28:38.521Z,13.91
2022-07-30T04:29:37.438Z,13.98
2022-07-30T04:30:37.411Z,13.96
2022-07-30T04:31:40.123Z,13.87
2022-07-30T04:32:37.391Z,13.93
2022-07-30T04:33:37.378Z,14.06
2022-07-30T04:34:37.402Z,14.06
2022-07-30T04:35:50.905Z,14.11
2022-07-30T04:36:38.343Z,14.41
2022-07-30T04:37:37.334Z,14.46
2022-07-30T04:38:37.348Z,14.85
2022-07-30T04:39:37.326Z,15.28
2022-07-30T04:40:37.348Z,15.49
2022-07-30T04:41:49.375Z,15.85
2022-07-30T04:42:38.276Z,15.95
2022-07-30T04:43:37.268Z,16.11
2022-07-30T04:44:37.269Z,16.18
2022-07-30T04:45:37.248Z,16.26
2022-07-30T04:46:37.285Z,16.29
2022-07-30T04:47:37.228Z,16.25
2022-07-30T04:48:37.216Z,16.29
2022-07-30T04:49:37.232Z,16.33
2022-07-30T04:50:37.195Z,16.37
2022-07-30T04:51:37.181Z,16.37
2022-07-30T04:52:37.185Z,16.42
2022-07-30T04:53:37.162Z,16.42
2022-07-30T04:54:37.166Z,16.50
2022-07-30T04:55:37.139Z,16.45
2022-07-30T04:56:37.126Z,16.59
2022-07-30T04:57:37.117Z,16.63
2022-07-30T04:58:37.118Z,16.63
2022-07-30T04:59:37.138Z,16.69
2022-07-30T05:00:40.948Z,16.80
2022-07-30T05:01:40.323Z,16.82
2022-07-30T05:02:37.070Z,16.91
2022-07-30T05:03:37.068Z,16.98
2022-07-30T05:04:37.056Z,16.99
2022-07-30T05:05:37.065Z,17.02
2022-07-30T05:06:37.022Z,17.02
2022-07-30T05:07:37.015Z,17.09
2022-07-30T05:08:37.004Z,17.15
2022-07-30T05:09:37.015Z,17.15
2022-07-30T05:10:36.976Z,17.28
2022-07-30T05:11:37.004Z,17.30
2022-07-30T05:12:36.956Z,17.28
2022-07-30T05:13:38.351Z,17.30
2022-07-30T05:14:36.933Z,17.36
2022-07-30T05:15:37.428Z,17.28
2022-07-30T05:16:36.914Z,17.30
2022-07-30T05:17:36.938Z,17.33
2022-07-30T05:18:36.890Z,17.49
2022-07-30T05:19:36.882Z,17.46
2022-07-30T05:20:36.869Z,17.49
2022-07-30T05:21:36.870Z,17.55
2022-07-30T05:22:36.866Z,17.55
2022-07-30T05:23:36.853Z,17.55
2022-07-30T05:24:36.843Z,17.62
2022-07-30T05:25:36.818Z,17.70
2022-07-30T05:26:36.803Z,17.71
2022-07-30T05:27:36.796Z,17.87
2022-07-30T05:28:36.789Z,17.91
2022-07-30T05:29:36.818Z,17.86
2022-07-30T05:30:36.760Z,18.01
2022-07-30T05:31:36.768Z,18.02
2022-07-30T05:32:36.742Z,18.02
2022-07-30T05:33:41.136Z,17.99
2022-07-30T05:34:37.749Z,18.07
2022-07-30T05:35:36.715Z,18.09
2022-07-30T05:36:36.720Z,18.14
2022-07-30T05:37:36.689Z,18.21
2022-07-30T05:38:36.677Z,18.29
2022-07-30T05:39:36.683Z,18.32
2022-07-30T05:40:37.654Z,18.44
2022-07-30T05:41:36.646Z,18.49
2022-07-30T05:42:36.632Z,18.49
2022-07-30T05:43:36.658Z,18.51
2022-07-30T05:44:36.634Z,18.66
2022-07-30T05:45:36.617Z,18.68
2022-07-30T05:46:36.699Z,18.65
2022-07-30T05:47:36.591Z,18.75
2022-07-30T05:48:36.578Z,18.83
2022-07-30T05:49:36.598Z,18.82
2022-07-30T05:50:36.543Z,18.84
2022-07-30T05:51:36.534Z,18.94
2022-07-30T05:52:36.538Z,18.97
2022-07-30T05:53:36.579Z,19.12
2022-07-30T05:54:36.514Z,19.10
2022-07-30T05:55:36.511Z,19.16
2022-07-30T05:56:36.502Z,19.20
2022-07-30T05:57:36.593Z,19.25
2022-07-30T05:58:36.477Z,19.31
2022-07-30T05:59:36.468Z,19.34
2022-07-30T06:00:36.435Z,19.40
2022-07-30T06:01:36.456Z,19.49
2022-07-30T06:02:36.424Z,19.53
2022-07-30T06:03:36.422Z,19.64
2022-07-30T06:04:36.509Z,19.78
2022-07-30T06:05:36.389Z,19.85
2022-07-30T06:06:36.374Z,19.90
2022-07-30T06:07:36.362Z,20.01
2022-07-30T06:08:36.350Z,20.04
2022-07-30T06:09:37.338Z,20.07
2022-07-30T06:10:36.340Z,20.13
2022-07-30T06:11:36.317Z,20.17
2022-07-30T06:12:36.318Z,20.25
2022-07-30T06:13:36.322Z,20.33
2022-07-30T06:14:36.342Z,20.40
2022-07-30T06:15:36.380Z,20.48
2022-07-30T06:16:36.269Z,20.63
2022-07-30T06:17:41.464Z,20.63
2022-07-30T06:18:37.280Z,20.73
2022-07-30T06:19:36.230Z,20.82
2022-07-30T06:20:36.231Z,20.91
2022-07-30T06:22:05.570Z,21.03
2022-07-30T06:22:37.207Z,21.08
2022-07-30T06:23:36.211Z,21.26
2022-07-30T06:24:36.190Z,21.70
2022-07-30T06:25:36.164Z,22.26
2022-07-30T06:26:36.152Z,22.82
2022-07-30T06:27:39.603Z,23.47
2022-07-30T06:28:38.836Z,23.97
2022-07-30T06:29:36.155Z,24.29
2022-07-30T06:30:36.224Z,24.46
2022-07-30T06:31:36.105Z,24.53
2022-07-30T06:32:36.104Z,24.44
2022-07-30T06:33:36.105Z,24.26
2022-07-30T06:34:36.066Z,24.27
2022-07-30T06:35:36.059Z,24.19
2022-07-30T06:36:36.045Z,24.33
2022-07-30T06:37:58.555Z,24.39
2022-07-30T06:38:37.035Z,24.45
2022-07-30T06:39:58.128Z,24.77
2022-07-30T06:40:36.999Z,24.98
2022-07-30T06:41:35.992Z,25.39
2022-07-30T06:42:35.983Z,25.83
2022-07-30T06:43:35.997Z,26.24
2022-07-30T06:44:35.962Z,26.69
2022-07-30T06:45:35.990Z,26.79
2022-07-30T06:46:36.010Z,27.35
2022-07-30T06:47:35.928Z,27.83
2022-07-30T06:48:36.020Z,28.13
2022-07-30T06:49:35.979Z,28.23
2022-07-30T06:50:35.922Z,28.28
2022-07-30T06:51:35.883Z,27.99
2022-07-30T06:52:35.913Z,27.52
2022-07-30T06:53:42.642Z,27.49
2022-07-30T06:54:36.892Z,27.23
2022-07-30T06:55:35.889Z,27.63
2022-07-30T06:56:35.863Z,27.77
2022-07-30T06:57:40.344Z,27.95
2022-07-30T06:58:36.840Z,28.09
2022-07-30T06:59:56.597Z,27.78
2022-07-30T07:00:36.804Z,27.25
2022-07-30T07:01:35.897Z,26.76
2022-07-30T07:02:35.777Z,26.53
2022-07-30T07:03:40.330Z,26.72
2022-07-30T07:04:35.834Z,26.96
2022-07-30T07:05:35.740Z,26.94
2022-07-30T07:06:35.742Z,27.01
2022-07-30T07:07:42.038Z,27.40
2022-07-30T07:08:36.717Z,27.72
2022-07-30T07:09:35.691Z,28.17
2022-07-30T07:10:36.731Z,28.42
2022-07-30T07:11:35.724Z,28.52
2022-07-30T07:12:35.698Z,28.83
2022-07-30T07:13:35.688Z,29.41
2022-07-30T07:14:35.718Z,29.52
2022-07-30T07:15:36.771Z,29.84
2022-07-30T07:16:35.669Z,29.86
2022-07-30T07:17:35.653Z,29.70
2022-07-30T07:18:35.610Z,29.70
2022-07-30T07:19:59.648Z,29.85
2022-07-30T07:20:36.664Z,29.54
2022-07-30T07:21:35.575Z,29.44
2022-07-30T07:22:35.547Z,29.10
2022-07-30T07:23:41.514Z,29.29
2022-07-30T07:24:36.537Z,29.51
2022-07-30T07:25:35.528Z,29.97
2022-07-30T07:26:35.519Z,30.25
2022-07-30T07:27:35.504Z,30.37
2022-07-30T07:28:35.516Z,30.18
2022-07-30T07:29:35.475Z,30.10
2022-07-30T07:30:35.600Z,30.26
2022-07-30T07:32:02.505Z,30.13
2022-07-30T07:32:36.443Z,30.32
2022-07-30T07:33:35.471Z,30.25
2022-07-30T07:34:35.421Z,30.16
2022-07-30T07:35:45.504Z,30.46
2022-07-30T07:36:36.433Z,30.60
2022-07-30T07:37:35.389Z,30.81
2022-07-30T07:38:35.388Z,30.88
2022-07-30T07:39:38.365Z,30.93
2022-07-30T07:40:36.357Z,31.09
2022-07-30T07:41:48.324Z,31.09
2022-07-30T07:42:36.367Z,30.94
2022-07-30T07:43:35.344Z,30.82
2022-07-30T07:44:35.320Z,30.83
2022-07-30T07:45:35.327Z,30.37
2022-07-30T07:46:35.347Z,30.11
2022-07-30T07:47:35.286Z,30.07
2022-07-30T07:48:35.274Z,30.16
2022-07-30T07:49:35.328Z,30.46
2022-07-30T07:50:35.256Z,30.38
2022-07-30T07:51:47.584Z,30.40
2022-07-30T07:52:36.238Z,30.03
2022-07-30T07:53:35.236Z,29.89
2022-07-30T07:54:35.222Z,30.40
2022-07-30T07:55:35.199Z,30.85
2022-07-30T07:56:35.224Z,31.03
2022-07-30T07:57:35.190Z,30.73
2022-07-30T07:58:35.184Z,30.68
2022-07-30T07:59:39.954Z,30.72
2022-07-30T08:00:36.242Z,30.81
2022-07-30T08:01:35.315Z,30.75
2022-07-30T08:02:35.202Z,30.75
2022-07-30T08:03:35.202Z,30.90
2022-07-30T08:04:35.175Z,30.85
2022-07-30T08:05:54.418Z,31.25
2022-07-30T08:06:36.096Z,31.05
2022-07-30T08:07:35.079Z,30.85
2022-07-30T08:08:35.074Z,31.01
2022-07-30T08:09:44.325Z,30.88
2022-07-30T08:10:36.135Z,30.75
2022-07-30T08:11:35.034Z,30.60
2022-07-30T08:12:35.047Z,30.66
2022-07-30T08:13:48.678Z,30.76
2022-07-30T08:14:35.996Z,30.54
2022-07-30T08:15:35.000Z,30.67
2022-07-30T08:16:35.083Z,30.67
2022-07-30T08:17:34.982Z,30.72
2022-07-30T08:18:34.999Z,30.98
2022-07-30T08:19:34.980Z,30.60
2022-07-30T08:20:35.041Z,30.04
2022-07-30T08:21:35.008Z,30.30
2022-07-30T08:22:34.916Z,30.16
2022-07-30T08:23:34.935Z,30.49
2022-07-30T08:24:34.937Z,30.66
2022-07-30T08:25:34.918Z,30.73
2022-07-30T08:26:34.865Z,30.91
2022-07-30T08:27:34.867Z,30.83
2022-07-30T08:28:36.599Z,30.93
2022-07-30T08:29:34.855Z,31.00
2022-07-30T08:31:34.819Z,31.18
2022-07-30T08:32:34.814Z,31.12
2022-07-30T08:33:34.803Z,31.10
2022-07-30T08:34:34.781Z,31.37
2022-07-30T08:35:34.768Z,31.62
2022-07-30T08:36:34.761Z,31.85
2022-07-30T08:37:34.780Z,31.87
2022-07-30T08:38:34.797Z,31.94
2022-07-30T08:39:34.728Z,31.72
2022-07-30T08:40:34.723Z,31.09
2022-07-30T08:41:34.707Z,30.91
2022-07-30T08:42:34.745Z,30.48
2022-07-30T08:43:34.700Z,30.54
2022-07-30T08:44:34.729Z,30.64
2022-07-30T08:45:35.428Z,31.07
2022-07-30T08:46:34.780Z,30.73
2022-07-30T08:47:34.680Z,30.79
2022-07-30T08:48:34.756Z,31.07
2022-07-30T08:49:34.626Z,31.10
2022-07-30T08:50:34.617Z,31.56
2022-07-30T08:51:34.654Z,31.76
2022-07-30T08:52:34.677Z,31.88
2022-07-30T08:53:34.614Z,31.92
2022-07-30T08:54:34.712Z,32.17
2022-07-30T08:55:35.290Z,32.41
2022-07-30T08:56:42.601Z,32.59
2022-07-30T08:57:34.553Z,32.29
2022-07-30T08:58:34.567Z,32.34
2022-07-30T08:59:59.295Z,32.31
2022-07-30T09:00:35.530Z,32.31
2022-07-30T09:01:34.495Z,32.59
2022-07-30T09:02:34.577Z,32.13
2022-07-30T09:03:34.533Z,32.05
2022-07-30T09:04:39.715Z,31.98
2022-07-30T09:05:34.493Z,31.56
2022-07-30T09:06:34.493Z,31.40
2022-07-30T09:07:34.464Z,31.00
2022-07-30T09:08:34.428Z,31.28
2022-07-30T09:09:34.554Z,31.82
2022-07-30T09:10:34.453Z,31.87
2022-07-30T09:11:34.557Z,32.16
2022-07-30T09:12:35.161Z,32.14
2022-07-30T09:13:34.564Z,32.21
2022-07-30T09:14:56.136Z,32.40
2022-07-30T09:15:34.400Z,32.58
2022-07-30T09:16:34.365Z,32.47
2022-07-30T09:17:34.457Z,32.35
2022-07-30T09:18:34.360Z,32.29
2022-07-30T09:19:34.394Z,32.06
2022-07-30T09:20:34.314Z,31.92
2022-07-30T09:21:34.755Z,31.57
2022-07-30T09:22:38.339Z,31.79
2022-07-30T09:23:34.370Z,31.71
2022-07-30T09:24:34.277Z,31.32
2022-07-30T09:25:34.249Z,31.52
2022-07-30T09:26:34.233Z,31.25
2022-07-30T09:27:34.235Z,30.94
2022-07-30T09:28:34.214Z,31.01
2022-07-30T09:29:34.266Z,31.18
2022-07-30T09:32:50.696Z,31.07
2022-07-30T09:33:51.316Z,31.31
2022-07-30T09:34:50.507Z,31.69
2022-07-30T09:35:50.469Z,32.02
2022-07-30T09:36:50.495Z,32.03
2022-07-30T09:37:50.406Z,31.78
2022-07-30T09:38:50.406Z,31.74
2022-07-30T09:39:58.941Z,30.88
2022-07-30T09:40:51.395Z,30.64
2022-07-30T09:41:51.434Z,30.91
2022-07-30T09:42:50.371Z,31.15
2022-07-30T09:43:50.352Z,31.50
2022-07-30T09:44:50.414Z,31.60
2022-07-30T09:45:56.843Z,31.91
2022-07-30T09:46:51.314Z,32.14
2022-07-30T09:47:50.324Z,31.65
2022-07-30T09:48:50.344Z,31.13
2022-07-30T09:49:50.361Z,31.25
2022-07-30T09:50:50.320Z,31.46
2022-07-30T09:52:01.375Z,31.92
2022-07-30T09:52:50.261Z,32.36
2022-07-30T09:53:50.299Z,32.40
2022-07-30T09:55:51.254Z,33.06
2022-07-30T09:56:53.673Z,33.07
2022-07-30T09:57:51.479Z,33.20
2022-07-30T09:58:50.349Z,32.56
2022-07-30T10:01:00.912Z,32.51
2022-07-30T10:02:10.166Z,32.56
2022-07-30T10:03:00.506Z,32.56
2022-07-30T10:04:01.497Z,32.68
2022-07-30T10:05:00.524Z,32.43
2022-07-30T10:06:00.494Z,32.41
2022-07-30T10:07:00.518Z,32.58
2022-07-30T10:08:01.223Z,32.56
2022-07-30T10:09:00.554Z,32.68
2022-07-30T10:10:01.587Z,32.44
2022-07-30T10:11:00.471Z,32.58
2022-07-30T10:12:02.668Z,31.98
2022-07-30T10:13:00.952Z,31.50
2022-07-30T10:14:00.419Z,30.78
2022-07-30T10:15:00.428Z,30.49
2022-07-30T10:16:00.417Z,30.96
2022-07-30T10:17:00.404Z,31.15
2022-07-30T10:18:00.362Z,31.62
2022-07-30T10:19:00.496Z,31.97
2022-07-30T10:20:02.879Z,32.43
2022-07-30T10:21:01.364Z,33.02
2022-07-30T10:22:00.695Z,33.28
2022-07-30T10:23:00.382Z,33.15
2022-07-30T10:24:01.308Z,32.65
2022-07-30T10:25:00.293Z,32.07
2022-07-30T10:26:00.293Z,31.47
2022-07-30T10:27:00.703Z,30.79
2022-07-30T10:28:02.807Z,30.16
2022-07-30T10:29:00.287Z,30.38
2022-07-30T10:30:04.115Z,30.86
2022-07-30T10:31:00.244Z,31.38
2022-07-30T10:32:00.218Z,31.90
2022-07-30T10:33:00.347Z,31.50
2022-07-30T10:34:00.237Z,31.45
2022-07-30T10:35:00.213Z,31.91
2022-07-30T10:36:02.747Z,32.16
2022-07-30T10:37:00.725Z,32.32
2022-07-30T10:38:00.185Z,32.36
2022-07-30T10:39:00.165Z,32.46
2022-07-30T10:40:00.190Z,32.83
2022-07-30T10:41:00.189Z,33.12
2022-07-30T10:42:00.110Z,33.45
2022-07-30T10:43:00.101Z,33.07
2022-07-30T10:44:00.093Z,33.11
2022-07-30T10:45:00.119Z,32.40
2022-07-30T10:46:00.514Z,31.92
2022-07-30T10:47:00.622Z,31.42
2022-07-30T10:48:01.055Z,30.82
2022-07-30T10:49:00.119Z,30.51
2022-07-30T10:50:00.077Z,30.61
2022-07-30T10:51:00.087Z,30.56
2022-07-30T10:52:00.091Z,30.13
2022-07-30T10:53:00.002Z,30.03
2022-07-30T10:54:00.001Z,29.86
2022-07-30T10:55:00.206Z,30.57
2022-07-30T10:55:59.981Z,30.54
2022-07-30T10:57:00.320Z,30.85
2022-07-30T10:57:59.965Z,31.68
2022-07-30T10:58:59.977Z,32.13
2022-07-30T11:00:00.742Z,32.54
2022-07-30T11:00:59.945Z,32.66
2022-07-30T11:01:59.932Z,32.90
2022-07-30T11:02:59.946Z,33.09
2022-07-30T11:04:01.199Z,33.03
2022-07-30T11:05:10.383Z,33.14
2022-07-30T11:05:59.944Z,33.18
2022-07-30T11:06:59.887Z,33.38
2022-07-30T11:07:59.879Z,33.55
2022-07-30T11:08:59.915Z,33.93
2022-07-30T11:10:05.522Z,33.94
2022-07-30T11:11:19.539Z,34.15
2022-07-30T11:12:06.063Z,34.03
2022-07-30T11:13:01.882Z,33.79
2022-07-30T11:14:10.151Z,33.78
2022-07-30T11:15:18.740Z,33.56
2022-07-30T11:16:00.887Z,33.14
2022-07-30T11:16:59.793Z,33.45
2022-07-30T11:17:59.770Z,33.09
2022-07-30T11:19:27.499Z,32.78
2022-07-30T11:20:01.850Z,32.54
2022-07-30T11:21:00.266Z,32.93
2022-07-30T11:22:04.193Z,33.47
2022-07-30T11:22:59.733Z,33.44
2022-07-30T11:23:59.785Z,33.94
2022-07-30T11:24:59.707Z,34.23
2022-07-30T11:25:59.702Z,34.55
2022-07-30T11:27:00.401Z,34.28
2022-07-30T11:27:59.674Z,33.86
2022-07-30T11:28:59.677Z,33.06
2022-07-30T11:29:59.813Z,32.21
2022-07-30T11:30:59.673Z,31.50
2022-07-30T11:32:03.986Z,31.07
2022-07-30T11:33:00.626Z,31.38
2022-07-30T11:33:59.623Z,31.95
2022-07-30T11:34:59.613Z,32.17
2022-07-30T11:35:59.591Z,32.54
2022-07-30T11:36:59.662Z,33.02
2022-07-30T11:38:01.973Z,32.43
2022-07-30T11:39:06.842Z,31.69
2022-07-30T11:40:00.881Z,32.24
2022-07-30T11:40:59.590Z,32.43
2022-07-30T11:41:59.857Z,32.39
2022-07-30T11:42:59.525Z,32.76
2022-07-30T11:43:59.525Z,33.31
2022-07-30T11:45:03.812Z,33.21
2022-07-30T11:45:59.533Z,33.12
2022-07-30T11:46:59.557Z,33.47
2022-07-30T11:47:59.493Z,33.41
2022-07-30T11:48:59.516Z,33.31
2022-07-30T11:49:59.497Z,32.95
2022-07-30T11:51:03.693Z,32.25
2022-07-30T11:51:59.913Z,32.02
2022-07-30T11:52:59.427Z,31.50
2022-07-30T11:53:59.439Z,31.01
2022-07-30T11:54:59.444Z,31.05
2022-07-30T11:55:59.406Z,31.56
2022-07-30T11:57:04.084Z,32.17
2022-07-30T11:58:00.401Z,32.73
2022-07-30T11:58:59.386Z,33.03
2022-07-30T11:59:59.384Z,32.93
2022-07-30T12:00:59.374Z,33.35
2022-07-30T12:01:59.747Z,33.72
2022-07-30T12:03:02.403Z,33.81
2022-07-30T12:03:59.411Z,33.93
2022-07-30T12:04:59.360Z,34.11
2022-07-30T12:05:59.489Z,34.28
2022-07-30T12:06:59.591Z,34.36
2022-07-30T12:07:59.293Z,34.16
2022-07-30T12:08:59.381Z,34.15
2022-07-30T12:09:59.297Z,34.34
2022-07-30T12:10:59.261Z,34.48
2022-07-30T12:11:59.294Z,34.43
2022-07-30T12:12:59.279Z,34.21
2022-07-30T12:13:59.282Z,33.96
2022-07-30T12:15:02.035Z,34.21
2022-07-30T12:15:59.215Z,34.55
2022-07-30T12:16:59.703Z,34.95
2022-07-30T12:18:24.156Z,35.25
2022-07-30T12:19:00.218Z,35.46
2022-07-30T12:19:59.190Z,35.83
2022-07-30T12:20:59.587Z,35.81
2022-07-30T12:21:59.182Z,35.59
2022-07-30T12:22:59.184Z,35.52
2022-07-30T12:24:00.470Z,35.52
2022-07-30T12:24:59.185Z,35.40
2022-07-30T12:25:59.142Z,35.40
2022-07-30T12:26:59.298Z,35.37
2022-07-30T12:27:59.154Z,35.09
2022-07-30T12:28:59.105Z,34.90
2022-07-30T12:29:59.178Z,34.72
2022-07-30T12:30:59.127Z,34.36
2022-07-30T12:31:59.127Z,34.53
2022-07-30T12:33:01.864Z,34.55
2022-07-30T12:33:59.465Z,34.98
2022-07-30T12:34:59.062Z,35.24
2022-07-30T12:35:59.047Z,35.52
2022-07-30T12:36:59.270Z,35.58
2022-07-30T12:37:59.017Z,35.58
2022-07-30T12:38:59.037Z,35.55
2022-07-30T12:39:59.110Z,35.12
2022-07-30T12:40:59.411Z,34.71
2022-07-30T12:41:59.442Z,33.81
2022-07-30T12:42:59.045Z,33.17
2022-07-30T12:43:59.006Z,33.06
2022-07-30T12:44:59.001Z,33.12
2022-07-30T12:45:59.019Z,33.49
2022-07-30T12:46:59.059Z,34.12
2022-07-30T12:47:59.036Z,34.78
2022-07-30T12:48:59.004Z,34.80
2022-07-30T12:50:01.472Z,34.90
2022-07-30T12:51:02.399Z,35.39
2022-07-30T12:52:00.756Z,35.65
2022-07-30T12:52:58.920Z,36.00
2022-07-30T12:53:58.919Z,36.21
2022-07-30T12:54:58.862Z,35.91
2022-07-30T12:55:58.872Z,34.64
2022-07-30T12:56:59.148Z,33.03
2022-07-30T12:58:01.593Z,32.16